createdAt,value
2022-11-04T00:01:20.684Z,11.77
2022-11-04T00:03:49.925Z,12.02
2022-11-04T00:06:20.776Z,10.60
2022-11-04T00:08:53.164Z,10.10
2022-11-04T00:11:39.929Z,10.43
2022-11-04T00:14:10.183Z,10.07
2022-11-04T00:16:57.062Z,9.65
2022-11-04T00:19:26.428Z,10.88
2022-11-04T00:22:14.350Z,9.50
2022-11-04T00:25:00.442Z,10.07
2022-11-04T00:27:46.928Z,9.70
2022-11-04T00:30:15.846Z,10.35
2022-11-04T00:33:02.450Z,9.45
2022-11-04T00:35:31.417Z,9.75
2022-11-04T00:38:02.672Z,8.93
2022-11-04T00:40:31.579Z,9.55
2022-11-04T00:43:00.758Z,9.95
2022-11-04T00:45:29.682Z,8.40
2022-11-04T00:47:58.953Z,9.07
2022-11-04T00:50:27.888Z,8.90
2022-11-04T00:53:02.238Z,8.55
2022-11-04T00:55:31.772Z,9.23
2022-11-04T00:58:01.078Z,8.02
2022-11-04T01:00:30.302Z,8.70
2022-11-04T01:03:00.353Z,9.00
2022-11-04T01:07:59.058Z,8.50
2022-11-04T01:10:30.694Z,8.43
2022-11-04T01:12:59.648Z,8.18
2022-11-04T01:15:28.843Z,8.13
2022-11-04T01:17:57.736Z,8.02
2022-11-04T01:20:26.928Z,8.45
2022-11-04T01:22:55.800Z,8.07
2022-11-04T01:25:25.055Z,7.97
2022-11-04T01:27:56.556Z,7.32
2022-11-04T01:30:25.780Z,7.25
2022-11-04T01:32:54.653Z,7.82
2022-11-04T01:35:23.835Z,7.72
2022-11-04T01:37:52.740Z,7.90
2022-11-04T01:40:21.928Z,7.13
2022-11-04T01:42:50.846Z,7.28
2022-11-04T01:45:23.195Z,7.57
2022-11-04T01:48:00.445Z,7.85
2022-11-04T01:50:33.856Z,7.25
2022-11-04T01:53:07.941Z,6.65
2022-11-04T01:55:41.715Z,6.63
2022-11-04T01:58:15.154Z,7.63
2022-11-04T02:00:46.275Z,7.40
2022-11-04T02:03:19.419Z,6.72
2022-11-04T02:05:49.667Z,7.20
2022-11-04T02:08:19.994Z,7.68
2022-11-04T02:10:53.608Z,7.43
2022-11-04T02:13:21.701Z,7.15
2022-11-04T02:15:59.621Z,7.00
2022-11-04T02:18:55.323Z,6.68
2022-11-04T02:21:50.180Z,8.18
2022-11-04T02:25:04.000Z,7.68
2022-11-04T02:27:44.818Z,7.30
2022-11-04T02:30:17.415Z,7.55
2022-11-04T02:33:13.298Z,7.80
2022-11-04T02:35:49.638Z,8.07
2022-11-04T02:38:31.526Z,7.80
2022-11-04T02:41:10.062Z,6.50
2022-11-04T02:43:49.314Z,8.00
2022-11-04T02:46:26.184Z,6.80
2022-11-04T02:49:01.359Z,6.53
2022-11-04T02:51:34.026Z,6.50
2022-11-04T02:54:09.711Z,5.85
2022-11-04T02:56:43.517Z,6.38
2022-11-04T02:59:19.314Z,5.93
2022-11-04T03:01:50.878Z,6.80
2022-11-04T03:04:24.419Z,6.50
2022-11-04T03:06:55.358Z,5.55
2022-11-04T03:09:26.683Z,5.55
2022-11-04T03:12:01.583Z,7.50
2022-11-04T03:14:37.103Z,5.50
2022-11-04T03:17:14.327Z,5.97
2022-11-04T03:19:51.426Z,6.57
2022-11-04T03:22:24.498Z,5.65
2022-11-04T03:24:54.538Z,5.97
2022-11-04T03:27:28.389Z,6.03
2022-11-04T03:30:02.667Z,6.28
2022-11-04T03:32:42.288Z,6.43
2022-11-04T03:35:12.906Z,6.53
2022-11-04T03:40:12.577Z,6.13
2022-11-04T03:42:49.848Z,5.72
2022-11-04T03:45:19.172Z,6.18
2022-11-04T03:47:49.984Z,6.57
2022-11-04T03:50:27.437Z,6.20
2022-11-04T03:52:56.896Z,5.80
2022-11-04T03:55:33.287Z,5.35
2022-11-04T03:58:06.993Z,5.65
2022-11-04T04:00:41.944Z,5.57
2022-11-04T04:03:19.059Z,6.07
2022-11-04T04:05:55.008Z,5.50
2022-11-04T04:08:34.895Z,5.50
2022-11-04T04:11:14.477Z,5.40
2022-11-04T04:13:50.995Z,6.10
2022-11-04T04:16:27.050Z,6.22
2022-11-04T04:19:01.917Z,5.50
2022-11-04T04:21:35.792Z,6.55
2022-11-04T04:24:25.437Z,6.20
2022-11-04T04:27:13.356Z,6.32
2022-11-04T04:29:44.589Z,5.93
2022-11-04T04:32:17.401Z,5.47
2022-11-04T04:34:47.760Z,5.65
2022-11-04T04:37:22.881Z,5.68
2022-11-04T04:40:11.727Z,5.85
2022-11-04T04:42:58.567Z,5.55
2022-11-04T04:45:32.856Z,5.47
2022-11-04T04:48:02.075Z,5.32
2022-11-04T04:50:36.759Z,5.70
2022-11-04T04:53:06.259Z,6.40
2022-11-04T04:55:40.628Z,6.90
2022-11-04T04:58:11.446Z,6.40
2022-11-04T05:00:40.563Z,5.75
2022-11-04T05:03:10.138Z,6.03
2022-11-04T05:05:40.695Z,6.25
2022-11-04T05:08:11.088Z,6.15
2022-11-04T05:10:40.408Z,6.45
2022-11-04T05:13:30.149Z,6.80
2022-11-04T05:16:04.621Z,6.28
2022-11-04T05:18:33.754Z,6.15
2022-11-04T05:21:07.514Z,7.88
2022-11-04T05:23:36.894Z,6.53
2022-11-04T05:26:06.355Z,6.55
2022-11-04T05:28:35.390Z,6.85
2022-11-04T05:31:05.945Z,6.60
2022-11-04T05:36:10.587Z,6.47
2022-11-04T05:38:40.083Z,7.20
2022-11-04T05:41:12.465Z,7.05
2022-11-04T05:43:41.418Z,7.00
2022-11-04T05:46:10.617Z,6.82
2022-11-04T05:48:40.687Z,7.25
2022-11-04T05:51:15.178Z,7.30
2022-11-04T05:53:44.387Z,6.85
2022-11-04T05:56:13.588Z,7.15
2022-11-04T05:58:42.594Z,7.20
2022-11-04T06:01:25.176Z,6.87
2022-11-04T06:03:55.019Z,6.85
2022-11-04T06:06:26.943Z,7.97
2022-11-04T06:08:56.775Z,7.03
2022-11-04T06:11:28.175Z,7.45
2022-11-04T06:13:58.018Z,6.72
2022-11-04T06:16:27.739Z,7.50
2022-11-04T06:19:01.381Z,6.85
2022-11-04T06:21:36.463Z,7.72
2022-11-04T06:26:34.739Z,7.85
2022-11-04T06:29:03.658Z,7.68
2022-11-04T06:31:32.895Z,8.45
2022-11-04T06:34:01.844Z,8.00
2022-11-04T06:36:31.254Z,7.55
2022-11-04T06:39:04.911Z,7.88
2022-11-04T06:41:34.719Z,8.00
2022-11-04T06:44:03.774Z,7.57
2022-11-04T06:46:38.079Z,8.20
2022-11-04T06:49:08.078Z,7.82
2022-11-04T06:54:07.802Z,8.70
2022-11-04T06:56:37.089Z,7.75
2022-11-04T06:59:06.415Z,7.93
2022-11-04T07:01:37.166Z,7.15
2022-11-04T07:04:06.703Z,7.70
2022-11-04T07:06:38.405Z,7.65
2022-11-04T07:09:13.658Z,7.68
2022-11-04T07:11:44.499Z,9.18
2022-11-04T07:14:13.920Z,8.10
2022-11-04T07:16:43.072Z,8.30
2022-11-04T07:19:12.038Z,7.82
2022-11-04T07:21:41.225Z,8.63
2022-11-04T07:24:11.594Z,7.57
2022-11-04T07:26:42.492Z,8.07
2022-11-04T07:29:12.139Z,7.65
2022-11-04T07:31:41.379Z,7.63
2022-11-04T07:34:10.341Z,8.90
2022-11-04T07:36:39.816Z,8.43
2022-11-04T07:39:10.144Z,8.70
2022-11-04T07:41:39.303Z,8.10
2022-11-04T07:44:08.499Z,7.70
2022-11-04T07:46:37.763Z,8.75
2022-11-04T07:49:06.888Z,7.60
2022-11-04T07:51:36.735Z,7.80
2022-11-04T07:54:05.769Z,8.25
2022-11-04T07:56:36.363Z,8.33
2022-11-04T08:01:36.273Z,8.00
2022-11-04T08:04:07.387Z,9.05
2022-11-04T08:06:37.000Z,8.82
2022-11-04T08:09:06.142Z,8.77
2022-11-04T08:11:36.875Z,9.52
2022-11-04T08:16:35.063Z,8.38
2022-11-04T08:19:04.353Z,8.98
2022-11-04T08:21:34.831Z,8.80
2022-11-04T08:24:05.339Z,8.45
2022-11-04T08:26:35.942Z,9.10
2022-11-04T08:29:08.380Z,9.05
2022-11-04T08:31:38.464Z,9.70
2022-11-04T08:34:08.518Z,9.27
2022-11-04T08:39:11.331Z,9.45
2022-11-04T08:41:45.464Z,9.77
2022-11-04T08:44:15.115Z,9.35
2022-11-04T08:46:46.091Z,9.18
2022-11-04T08:49:20.610Z,8.65
2022-11-04T08:51:56.506Z,9.07
2022-11-04T08:54:26.132Z,8.73
2022-11-04T08:56:57.776Z,7.95
2022-11-04T08:59:26.764Z,8.60
2022-11-04T09:01:56.286Z,8.33
2022-11-04T09:04:25.445Z,7.87
2022-11-04T09:06:56.291Z,7.90
2022-11-04T09:09:25.303Z,8.18
2022-11-04T09:11:55.898Z,7.78
2022-11-04T09:16:54.128Z,7.45
2022-11-04T09:19:23.067Z,7.50
2022-11-04T09:21:52.568Z,7.38
2022-11-04T09:24:21.543Z,7.35
2022-11-04T09:26:50.746Z,7.40
2022-11-04T09:29:21.039Z,7.65
2022-11-04T09:31:51.187Z,7.90
2022-11-04T09:34:20.102Z,7.53
2022-11-04T09:36:49.382Z,7.47
2022-11-04T09:39:18.712Z,7.03
2022-11-04T09:42:03.083Z,10.15
2022-11-04T09:45:06.951Z,7.20
2022-11-04T09:47:35.001Z,7.00
2022-11-04T09:50:11.365Z,7.45
2022-11-04T09:52:45.746Z,7.43
2022-11-04T09:55:22.251Z,7.60
2022-11-04T09:57:56.515Z,7.25
2022-11-04T10:00:31.229Z,7.10
2022-11-04T10:03:16.804Z,6.93
2022-11-04T10:06:01.223Z,6.85
2022-11-04T10:08:48.375Z,7.40
2022-11-04T10:11:26.235Z,8.05
2022-11-04T10:14:10.638Z,7.97
2022-11-04T10:16:57.561Z,7.88
2022-11-04T10:19:44.723Z,7.43
2022-11-04T10:22:23.298Z,7.15
2022-11-04T10:25:02.833Z,7.53
2022-11-04T10:27:36.420Z,7.03
2022-11-04T10:30:09.409Z,7.10
2022-11-04T10:32:47.468Z,7.32
2022-11-04T10:35:27.543Z,7.47
2022-11-04T10:37:58.898Z,7.05
2022-11-04T10:40:32.739Z,8.13
2022-11-04T10:43:11.621Z,7.75
2022-11-04T10:45:50.064Z,9.40
2022-11-04T10:48:26.442Z,8.00
2022-11-04T10:50:57.629Z,8.48
2022-11-04T10:53:28.424Z,8.70
2022-11-04T10:56:04.636Z,8.77
2022-11-04T10:58:37.076Z,8.25
2022-11-04T11:01:25.435Z,8.65
2022-11-04T11:03:56.393Z,8.88
2022-11-04T11:06:28.951Z,7.68
2022-11-04T11:09:00.800Z,8.50
2022-11-04T11:11:45.292Z,8.75
2022-11-04T11:14:19.695Z,8.32
2022-11-04T11:16:49.044Z,8.13
2022-11-04T11:19:22.082Z,7.22
2022-11-04T11:21:53.248Z,7.85
2022-11-04T11:24:23.510Z,8.48
2022-11-04T11:26:55.111Z,8.07
2022-11-04T11:29:27.074Z,7.93
2022-11-04T11:31:58.094Z,8.05
2022-11-04T11:34:33.216Z,7.25
2022-11-04T11:37:04.939Z,7.55
2022-11-04T11:39:35.720Z,8.18
2022-11-04T11:42:08.039Z,7.78
2022-11-04T11:44:44.295Z,8.07
2022-11-04T11:47:22.227Z,8.50
2022-11-04T11:50:07.668Z,8.73
2022-11-04T11:52:38.360Z,10.02
2022-11-04T11:55:15.622Z,7.47
2022-11-04T12:00:49.722Z,9.10
2022-11-04T12:03:31.211Z,8.18
2022-11-04T12:09:18.303Z,7.32
2022-11-04T12:12:16.530Z,7.85
2022-11-04T12:15:00.280Z,7.88
2022-11-04T12:17:45.303Z,8.48
2022-11-04T12:20:27.023Z,9.90
2022-11-04T12:23:06.237Z,8.63
2022-11-04T12:25:45.876Z,7.32
2022-11-04T12:28:28.762Z,8.35
2022-11-04T12:31:14.364Z,7.90
2022-11-04T12:33:54.040Z,8.35
2022-11-04T12:36:43.617Z,7.85
2022-11-04T12:39:38.317Z,7.10
2022-11-04T12:42:21.482Z,7.47
2022-11-04T12:44:59.574Z,9.65
2022-11-04T12:47:37.559Z,8.50
2022-11-04T12:50:44.406Z,7.30
2022-11-04T12:53:29.462Z,7.55
2022-11-04T12:56:07.775Z,7.53
2022-11-04T12:58:49.123Z,7.53
2022-11-04T13:01:22.788Z,8.13
2022-11-04T13:03:58.689Z,7.40
2022-11-04T13:06:33.756Z,8.00
2022-11-04T13:09:09.352Z,7.40
2022-11-04T13:11:46.370Z,7.70
2022-11-04T13:14:23.871Z,8.45
2022-11-04T13:16:54.302Z,8.80
2022-11-04T13:19:31.627Z,8.10
2022-11-04T13:22:03.857Z,8.63
2022-11-04T13:24:36.155Z,8.48
2022-11-04T13:27:17.133Z,9.60
2022-11-04T13:29:46.877Z,8.82
2022-11-04T13:32:25.408Z,9.20
2022-11-04T13:35:02.490Z,8.93
2022-11-04T13:37:35.172Z,9.02
2022-11-04T13:40:12.463Z,9.45
2022-11-04T13:43:20.580Z,8.52
2022-11-04T13:45:53.056Z,8.65
2022-11-04T13:48:24.449Z,9.82
2022-11-04T13:51:06.338Z,9.43
2022-11-04T13:53:47.874Z,8.88
2022-11-04T13:56:34.669Z,8.55
2022-11-04T13:59:20.831Z,8.55
2022-11-04T14:01:50.628Z,8.52
2022-11-04T14:04:31.767Z,9.55
2022-11-04T14:07:03.999Z,9.38
2022-11-04T14:09:52.542Z,8.80
2022-11-04T14:12:34.367Z,10.02
2022-11-04T14:15:18.016Z,12.35
2022-11-04T14:18:00.670Z,9.70
2022-11-04T14:20:33.240Z,11.48
2022-11-04T14:23:05.759Z,9.48
2022-11-04T14:25:37.641Z,9.68
2022-11-04T14:28:26.876Z,11.95
2022-11-04T14:30:58.011Z,9.90
2022-11-04T14:33:51.394Z,10.93
2022-11-04T14:36:34.600Z,10.35
2022-11-04T14:39:21.921Z,10.75
2022-11-04T14:41:54.492Z,11.70
2022-11-04T14:44:32.958Z,10.30
2022-11-04T14:47:14.653Z,9.10
2022-11-04T14:49:47.446Z,8.77
2022-11-04T14:52:25.393Z,10.65
2022-11-04T14:54:59.272Z,13.60
2022-11-04T14:57:32.036Z,12.10
2022-11-04T15:00:01.282Z,13.38
2022-11-04T15:02:35.328Z,13.98
2022-11-04T15:05:04.768Z,13.65
2022-11-04T15:07:36.386Z,15.20
2022-11-04T15:10:21.100Z,13.23
2022-11-04T15:12:54.631Z,13.45
2022-11-04T15:15:36.199Z,10.80
2022-11-04T15:18:09.986Z,12.18
2022-11-04T15:20:52.653Z,11.23
2022-11-04T15:23:28.147Z,14.23
2022-11-04T15:25:59.668Z,10.98
2022-11-04T15:28:30.943Z,22.50
2022-11-04T15:31:17.623Z,16.52
2022-11-04T15:33:51.105Z,17.27
2022-11-04T15:36:23.507Z,16.98
2022-11-04T15:38:56.177Z,15.27
2022-11-04T15:41:44.674Z,14.80
2022-11-04T15:44:21.982Z,14.65
2022-11-04T15:46:53.243Z,13.73
2022-11-04T15:49:26.767Z,19.13
2022-11-04T15:52:00.106Z,15.15
2022-11-04T15:54:33.033Z,13.52
2022-11-04T15:57:06.157Z,12.00
2022-11-04T15:59:38.082Z,11.95
2022-11-04T16:02:21.638Z,11.52
2022-11-04T16:05:07.238Z,10.43
2022-11-04T16:07:39.729Z,10.05
2022-11-04T16:10:31.291Z,10.18
2022-11-04T16:13:02.243Z,9.85
2022-11-04T16:15:40.242Z,9.60
2022-11-04T16:18:24.817Z,9.82
2022-11-04T16:20:56.530Z,8.80
2022-11-04T16:23:28.419Z,10.95
2022-11-04T16:26:25.961Z,10.45
2022-11-04T16:28:57.393Z,8.60
2022-11-04T16:31:33.783Z,8.73
2022-11-04T16:34:03.705Z,8.63
2022-11-04T16:36:35.803Z,9.18
2022-11-04T16:39:08.762Z,9.05
2022-11-04T16:41:39.643Z,8.82
2022-11-04T16:44:22.937Z,8.13
2022-11-04T16:46:52.138Z,8.65
2022-11-04T16:49:22.912Z,8.07
2022-11-04T16:51:56.150Z,8.30
2022-11-04T16:54:27.401Z,8.20
2022-11-04T16:56:56.915Z,7.03
2022-11-04T16:59:26.111Z,8.05
2022-11-04T17:01:55.726Z,7.40
2022-11-04T17:04:25.172Z,7.57
2022-11-04T17:06:56.433Z,7.70
2022-11-04T17:09:25.861Z,7.53
2022-11-04T17:11:54.821Z,7.40
2022-11-04T17:14:24.194Z,7.00
2022-11-04T17:16:53.162Z,7.18
2022-11-04T17:19:22.359Z,8.00
2022-11-04T17:21:51.981Z,7.38
2022-11-04T17:24:22.551Z,7.72
2022-11-04T17:29:20.465Z,8.10
2022-11-04T17:31:49.364Z,7.20
2022-11-04T17:34:18.552Z,7.82
2022-11-04T17:36:47.473Z,7.72
2022-11-04T17:39:17.675Z,7.97
2022-11-04T17:42:17.133Z,6.93
2022-11-04T17:44:46.378Z,7.75
2022-11-04T17:47:15.294Z,8.55
2022-11-04T17:49:44.486Z,8.52
2022-11-04T17:52:13.367Z,8.27
2022-11-04T17:54:42.555Z,7.93
2022-11-04T17:57:12.830Z,8.35
2022-11-04T17:59:43.032Z,8.60
2022-11-04T18:02:12.230Z,7.95
2022-11-04T18:04:41.630Z,8.82
2022-11-04T18:07:25.857Z,9.00
2022-11-04T18:09:57.909Z,8.63
2022-11-04T18:12:43.931Z,9.02
2022-11-04T18:15:18.860Z,9.20
2022-11-04T18:17:50.005Z,9.15
2022-11-04T18:20:19.319Z,9.70
2022-11-04T18:22:48.289Z,9.13
2022-11-04T18:25:17.541Z,9.73
2022-11-04T18:27:49.012Z,9.27
2022-11-04T18:30:18.845Z,9.30
2022-11-04T18:32:47.726Z,9.98
2022-11-04T18:35:17.009Z,9.70
2022-11-04T18:37:47.520Z,9.77
2022-11-04T18:40:17.843Z,9.30
2022-11-04T18:42:48.175Z,9.63
2022-11-04T18:45:17.450Z,8.60
2022-11-04T18:47:49.134Z,9.00
2022-11-04T18:50:18.566Z,9.43
2022-11-04T18:52:47.493Z,8.85
2022-11-04T18:55:16.668Z,11.15
2022-11-04T18:57:46.955Z,9.55
2022-11-04T19:00:17.487Z,8.80
2022-11-04T19:02:46.617Z,11.60
2022-11-04T19:05:15.969Z,9.35
2022-11-04T19:07:45.052Z,9.50
2022-11-04T19:10:14.609Z,9.38
2022-11-04T19:13:00.925Z,10.30
2022-11-04T19:15:32.143Z,9.43
2022-11-04T19:18:01.082Z,9.50
2022-11-04T19:20:30.379Z,8.30
2022-11-04T19:22:59.265Z,7.97
2022-11-04T19:25:28.464Z,7.80
2022-11-04T19:28:26.804Z,8.13
2022-11-04T19:30:57.779Z,7.47
2022-11-04T19:33:26.806Z,7.25
2022-11-04T19:35:56.555Z,7.83
2022-11-04T19:38:25.486Z,8.60
2022-11-04T19:40:55.961Z,10.27
2022-11-04T19:43:24.283Z,8.43
2022-11-04T19:45:57.709Z,8.35
2022-11-04T19:48:29.047Z,8.18
2022-11-04T19:50:58.583Z,8.77
2022-11-04T19:53:27.440Z,8.18
2022-11-04T19:55:58.650Z,8.05
2022-11-04T19:58:27.527Z,8.40
2022-11-04T20:00:58.317Z,8.55
2022-11-04T20:03:27.398Z,7.93
2022-11-04T20:05:57.138Z,8.87
2022-11-04T20:08:26.193Z,8.43
2022-11-04T20:10:55.421Z,8.43
2022-11-04T20:13:42.223Z,8.73
2022-11-04T20:16:19.503Z,8.68
2022-11-04T20:18:50.704Z,8.30
2022-11-04T20:21:22.572Z,8.48
2022-11-04T20:23:55.777Z,8.70
2022-11-04T20:26:26.022Z,8.52
2022-11-04T20:28:58.279Z,8.27
2022-11-04T20:31:30.675Z,8.27
2022-11-04T20:34:01.174Z,7.93
2022-11-04T20:36:31.941Z,8.13
2022-11-04T20:39:02.492Z,7.70
2022-11-04T20:41:32.232Z,7.35
2022-11-04T20:44:01.530Z,8.15
2022-11-04T20:46:34.837Z,8.18
2022-11-04T20:49:04.889Z,7.80
2022-11-04T20:54:06.781Z,7.60
2022-11-04T20:56:39.275Z,7.78
2022-11-04T20:59:09.474Z,7.72
2022-11-04T21:01:42.990Z,7.57
2022-11-04T21:04:15.462Z,7.93
2022-11-04T21:06:45.029Z,7.75
2022-11-04T21:09:15.731Z,7.78
2022-11-04T21:11:45.346Z,8.35
2022-11-04T21:14:16.125Z,8.15
2022-11-04T21:16:47.959Z,7.53
2022-11-04T21:19:21.951Z,8.60
2022-11-04T21:21:51.171Z,7.72
2022-11-04T21:24:20.165Z,7.97
2022-11-04T21:26:49.366Z,7.40
2022-11-04T21:29:20.061Z,8.10
2022-11-04T21:31:50.747Z,8.55
2022-11-04T21:34:20.286Z,8.23
2022-11-04T21:36:52.773Z,7.68
2022-11-04T21:39:22.943Z,8.15
2022-11-04T21:41:52.131Z,7.65
2022-11-04T21:44:21.094Z,8.25
2022-11-04T21:46:52.477Z,8.30
2022-11-04T21:49:21.555Z,8.15
2022-11-04T21:51:50.744Z,8.30
2022-11-04T21:54:19.809Z,7.63
2022-11-04T21:56:51.099Z,6.80
2022-11-04T21:59:20.400Z,7.32
2022-11-04T22:01:51.760Z,7.15
2022-11-04T22:04:22.374Z,7.00
2022-11-04T22:06:51.871Z,6.82
2022-11-04T22:09:21.085Z,7.00
2022-11-04T22:11:51.208Z,7.72
2022-11-04T22:14:20.516Z,7.82
2022-11-04T22:16:53.362Z,7.72
2022-11-04T22:19:22.673Z,7.25
2022-11-04T22:21:52.198Z,7.53
2022-11-04T22:24:23.076Z,6.47
2022-11-04T22:26:54.039Z,7.03
2022-11-04T22:29:25.066Z,8.18
2022-11-04T22:31:56.193Z,7.05
2022-11-04T22:34:26.303Z,7.55
2022-11-04T22:36:59.427Z,7.38
2022-11-04T22:39:28.592Z,7.32
2022-11-04T22:41:59.776Z,6.85
2022-11-04T22:44:29.008Z,7.18
2022-11-04T22:46:59.673Z,7.28
2022-11-04T22:49:28.606Z,6.57
2022-11-04T22:51:57.951Z,7.28
2022-11-04T22:54:27.251Z,6.80
2022-11-04T22:59:43.964Z,7.70
2022-11-04T23:02:18.555Z,6.97
2022-11-04T23:04:51.364Z,6.75
2022-11-04T23:07:24.358Z,6.45
2022-11-04T23:10:12.720Z,6.90
2022-11-04T23:12:59.523Z,6.82
2022-11-04T23:15:45.906Z,7.32
2022-11-04T23:18:41.085Z,6.93
2022-11-04T23:21:31.947Z,6.90
2022-11-04T23:24:15.562Z,7.40
2022-11-04T23:26:46.401Z,6.72
2022-11-04T23:29:40.120Z,7.05
2022-11-04T23:32:13.532Z,6.80
2022-11-04T23:35:20.739Z,6.47
2022-11-04T23:37:50.250Z,6.88
2022-11-04T23:40:22.922Z,6.68
2022-11-04T23:42:50.989Z,6.55
2022-11-04T23:45:39.885Z,6.55
2022-11-04T23:48:31.284Z,5.95
2022-11-04T23:51:24.576Z,6.38
2022-11-04T23:54:13.346Z,7.32
2022-11-04T23:56:58.416Z,6.80
2022-11-04T23:59:44.590Z,6.32
